Time;durP1;ratioP1;P1;durP2;ratioP2;P2;SDS_P1;SDS_P2;PMS_P1;PMS_P2;Temp;Humidity;BMP_temperature;BMP_pressure;BME280_temperature;BME280_humidity;BME280_pressure;Samples;Min_cycle;Max_cycle;Signal;HPM_P1;HPM_P2
2024/04/06 00:00:56;;;;;;;1999.90;999.90;;;;;;;;;;5029088;28;20052;-83
2024/04/06 00:03:23;;;;;;;1999.90;999.90;;;;;;;;;;5035266;28;20550;-82
2024/04/06 00:05:50;;;;;;;1999.90;999.90;;;;;;;;;;5041648;28;20057;-82
2024/04/06 00:08:16;;;;;;;1999.90;999.90;;;;;;;;;;5028988;28;20049;-81
2024/04/06 00:10:42;;;;;;;1999.90;999.90;;;;;;;;;;5029161;28;20158;-82
2024/04/06 00:13:08;;;;;;;1999.90;999.90;;;;;;;;;;5032504;28;20132;-82
2024/04/06 00:15:34;;;;;;;1999.90;999.90;;;;;;;;;;5033625;28;20092;-82
2024/04/06 00:18:00;;;;;;;1999.90;999.90;;;;;;;;;;5033292;28;20523;-82
2024/04/06 00:20:28;;;;;;;1999.90;999.90;;;;;;;;;;5030249;28;20544;-82
2024/04/06 00:22:56;;;;;;;1999.90;999.90;;;;;;;;;;5027129;28;20515;-82
2024/04/06 00:25:22;;;;;;;1999.90;999.90;;;;;;;;;;5032586;28;20476;-85
2024/04/06 00:27:48;;;;;;;1999.90;999.90;;;;;;;;;;5031805;28;20140;-82
2024/04/06 00:30:14;;;;;;;1999.90;999.90;;;;;;;;;;5030218;28;20423;-82
2024/04/06 00:32:41;;;;;;;1999.90;999.90;;;;;;;;;;5034613;28;20068;-82
2024/04/06 00:35:06;;;;;;;1999.90;999.90;;;;;;;;;;5034857;28;20050;-82
2024/04/06 00:37:33;;;;;;;1999.90;999.90;;;;;;;;;;5031391;28;20497;-82
2024/04/06 00:40:00;;;;;;;1999.90;999.90;;;;;;;;;;5030110;28;20039;-82
2024/04/06 00:42:27;;;;;;;1999.90;999.90;;;;;;;;;;5032763;28;20173;-81
2024/04/06 00:44:52;;;;;;;1999.90;999.90;;;;;;;;;;5026555;28;20060;-82
2024/04/06 00:47:19;;;;;;;1999.90;999.90;;;;;;;;;;5033879;28;20406;-81
2024/04/06 00:49:45;;;;;;;1999.90;999.90;;;;;;;;;;5035802;28;20053;-82
2024/04/06 00:52:11;;;;;;;1999.90;999.90;;;;;;;;;;5033458;28;20053;-82
2024/04/06 00:54:37;;;;;;;1999.90;999.90;;;;;;;;;;5032544;28;20053;-82
2024/04/06 00:57:07;;;;;;;1999.90;999.90;;;;;;;;;;5034415;28;20490;-81
2024/04/06 00:59:33;;;;;;;1999.90;999.90;;;;;;;;;;5032959;28;20056;-81
2024/04/06 01:01:59;;;;;;;1999.90;999.90;;;;;;;;;;5031871;28;20061;-82
2024/04/06 01:04:25;;;;;;;1999.90;999.90;;;;;;;;;;5037801;28;20065;-82
2024/04/06 01:06:51;;;;;;;1999.90;999.90;;;;;;;;;;5029629;28;20717;-81
2024/04/06 01:09:17;;;;;;;1999.90;999.90;;;;;;;;;;5030628;28;20067;-82
2024/04/06 01:11:44;;;;;;;1999.90;999.90;;;;;;;;;;5028662;28;20053;-82
2024/04/06 01:14:11;;;;;;;1999.90;999.90;;;;;;;;;;5029211;28;20053;-82
2024/04/06 01:16:38;;;;;;;1999.90;999.90;;;;;;;;;;5030752;28;20057;-82
2024/04/06 01:19:03;;;;;;;1999.90;999.90;;;;;;;;;;5032265;28;20107;-82
2024/04/06 01:21:30;;;;;;;1999.90;999.90;;;;;;;;;;5037442;28;20057;-83
2024/04/06 01:23:56;;;;;;;1999.90;999.90;;;;;;;;;;5038851;28;20425;-82
2024/04/06 01:26:24;;;;;;;1999.90;999.90;;;;;;;;;;5032065;28;20057;-81
2024/04/06 01:28:49;;;;;;;1999.90;999.90;;;;;;;;;;5029558;28;20400;-81
2024/04/06 01:31:16;;;;;;;1999.90;999.90;;;;;;;;;;5035431;28;20055;-82
2024/04/06 01:33:42;;;;;;;1999.90;999.90;;;;;;;;;;5033479;28;20055;-81
2024/04/06 01:36:09;;;;;;;1999.90;999.90;;;;;;;;;;5033287;28;20045;-81
2024/04/06 01:38:34;;;;;;;1999.90;999.90;;;;;;;;;;5039096;28;20045;-81
2024/04/06 01:41:01;;;;;;;1999.90;999.90;;;;;;;;;;5030431;28;20049;-81
2024/04/06 01:43:28;;;;;;;1999.90;999.90;;;;;;;;;;5039249;28;20140;-82
2024/04/06 01:45:54;;;;;;;1999.90;999.90;;;;;;;;;;5030592;28;20056;-84
2024/04/06 01:48:20;;;;;;;1999.90;999.90;;;;;;;;;;5035750;28;20057;-81
2024/04/06 01:50:46;;;;;;;1999.90;999.90;;;;;;;;;;5033064;28;20049;-84
2024/04/06 01:53:12;;;;;;;1999.90;999.90;;;;;;;;;;5040369;28;20049;-84
2024/04/06 01:55:38;;;;;;;1999.90;999.90;;;;;;;;;;5048720;28;20063;-84
2024/04/06 01:58:04;;;;;;;1999.90;999.90;;;;;;;;;;5034857;28;20136;-84
2024/04/06 02:00:32;;;;;;;1999.90;999.90;;;;;;;;;;5037767;28;20133;-84
2024/04/06 02:03:00;;;;;;;1999.90;999.90;;;;;;;;;;5037896;28;20045;-84
2024/04/06 02:05:27;;;;;;;1999.90;999.90;;;;;;;;;;5037226;28;20135;-84
2024/04/06 02:07:53;;;;;;;1999.90;999.90;;;;;;;;;;5032952;28;20071;-84
2024/04/06 02:10:19;;;;;;;1999.90;999.90;;;;;;;;;;5037390;28;20562;-83
2024/04/06 02:12:47;;;;;;;1999.90;999.90;;;;;;;;;;5034154;28;20085;-83
2024/04/06 02:15:13;;;;;;;1999.90;999.90;;;;;;;;;;5030448;28;20045;-84
2024/04/06 02:17:40;;;;;;;1999.90;999.90;;;;;;;;;;5028604;28;20056;-84
2024/04/06 02:20:09;;;;;;;1999.90;999.90;;;;;;;;;;5034683;28;20085;-84
2024/04/06 02:22:35;;;;;;;1999.90;999.90;;;;;;;;;;5031091;28;20041;-84
2024/04/06 02:25:03;;;;;;;1999.90;999.90;;;;;;;;;;5034231;28;20140;-84
2024/04/06 02:27:28;;;;;;;1999.90;999.90;;;;;;;;;;5035754;28;20057;-84
2024/04/06 02:29:55;;;;;;;1999.90;999.90;;;;;;;;;;5028586;28;20056;-82
2024/04/06 02:32:21;;;;;;;1999.90;999.90;;;;;;;;;;5034660;28;20060;-83
2024/04/06 02:34:49;;;;;;;1999.90;999.90;;;;;;;;;;5033746;28;20054;-83
2024/04/06 02:37:14;;;;;;;1999.90;999.90;;;;;;;;;;5034138;28;20060;-84
2024/04/06 02:39:41;;;;;;;1999.90;999.90;;;;;;;;;;5029876;28;20105;-83
2024/04/06 02:42:07;;;;;;;1999.90;999.90;;;;;;;;;;5028894;28;20060;-83
2024/04/06 02:44:33;;;;;;;1999.90;999.90;;;;;;;;;;5025100;28;20050;-83
2024/04/06 02:46:59;;;;;;;1999.90;999.90;;;;;;;;;;5030873;28;20052;-83
2024/04/06 02:49:25;;;;;;;1999.90;999.90;;;;;;;;;;5037487;28;20513;-83
2024/04/06 02:51:52;;;;;;;1999.90;999.90;;;;;;;;;;5035200;28;20117;-83
2024/04/06 02:54:19;;;;;;;1999.90;999.90;;;;;;;;;;5031202;28;20053;-83
2024/04/06 02:56:44;;;;;;;1999.90;999.90;;;;;;;;;;5029745;28;20052;-83
2024/04/06 02:59:20;;;;;;;1999.90;999.90;;;;;;;;;;5032939;28;20752;-84
2024/04/06 03:01:46;;;;;;;1999.90;999.90;;;;;;;;;;5033519;28;20514;-81
2024/04/06 03:04:13;;;;;;;1999.90;999.90;;;;;;;;;;5029943;28;20152;-80
2024/04/06 03:06:38;;;;;;;1999.90;999.90;;;;;;;;;;5034611;28;20049;-81
2024/04/06 03:09:06;;;;;;;1999.90;999.90;;;;;;;;;;5034628;28;20082;-81
2024/04/06 03:11:32;;;;;;;1999.90;999.90;;;;;;;;;;5034274;28;20044;-84
2024/04/06 03:13:58;;;;;;;1999.90;999.90;;;;;;;;;;5035187;28;20137;-84
2024/04/06 03:16:24;;;;;;;1999.90;999.90;;;;;;;;;;5029186;28;20115;-83
2024/04/06 03:18:50;;;;;;;1999.90;999.90;;;;;;;;;;5036445;28;20057;-84
2024/04/06 03:21:16;;;;;;;1999.90;999.90;;;;;;;;;;5034205;28;20049;-84
2024/04/06 03:23:42;;;;;;;1999.90;999.90;;;;;;;;;;5032728;28;20411;-84
2024/04/06 03:26:09;;;;;;;1999.90;999.90;;;;;;;;;;5027686;28;20053;-84
2024/04/06 03:28:36;;;;;;;1999.90;999.90;;;;;;;;;;5030317;28;20056;-83
2024/04/06 03:31:03;;;;;;;1999.90;999.90;;;;;;;;;;5034667;28;20049;-83
2024/04/06 03:33:29;;;;;;;1999.90;999.90;;;;;;;;;;5026474;28;20565;-83
2024/04/06 03:35:55;;;;;;;1999.90;999.90;;;;;;;;;;5032185;28;20136;-83
2024/04/06 03:38:21;;;;;;;1999.90;999.90;;;;;;;;;;5034610;28;20144;-84
2024/04/06 03:40:48;;;;;;;1999.90;999.90;;;;;;;;;;5038890;28;20045;-84
2024/04/06 03:43:16;;;;;;;1999.90;999.90;;;;;;;;;;5034362;28;20055;-84
2024/04/06 03:45:43;;;;;;;1999.90;999.90;;;;;;;;;;5032202;28;20049;-84
2024/04/06 03:48:10;;;;;;;1999.90;999.90;;;;;;;;;;5036926;28;20498;-84
2024/04/06 03:50:35;;;;;;;1999.90;999.90;;;;;;;;;;5036218;28;20092;-84
2024/04/06 03:53:02;;;;;;;1999.90;999.90;;;;;;;;;;5033614;28;20076;-84
2024/04/06 03:55:28;;;;;;;1999.90;999.90;;;;;;;;;;5032558;28;20587;-84
2024/04/06 03:57:54;;;;;;;1999.90;999.90;;;;;;;;;;5038465;28;20057;-83
2024/04/06 04:00:21;;;;;;;1999.90;999.90;;;;;;;;;;5042260;28;20045;-83
2024/04/06 04:02:48;;;;;;;1999.90;999.90;;;;;;;;;;5035135;28;20056;-84
2024/04/06 04:05:13;;;;;;;1999.90;999.90;;;;;;;;;;5035452;28;20080;-84
2024/04/06 04:07:40;;;;;;;1999.90;999.90;;;;;;;;;;5037494;28;20748;-84
2024/04/06 04:10:07;;;;;;;1999.90;999.90;;;;;;;;;;5034242;28;20503;-84
2024/04/06 04:12:33;;;;;;;1999.90;999.90;;;;;;;;;;5032548;28;20487;-83
2024/04/06 04:15:01;;;;;;;1999.90;999.90;;;;;;;;;;5038300;28;20108;-84
2024/04/06 04:17:28;;;;;;;1999.90;999.90;;;;;;;;;;5031008;28;20057;-84
2024/04/06 04:19:54;;;;;;;1999.90;999.90;;;;;;;;;;5024273;28;20049;-81
2024/04/06 04:22:20;;;;;;;1999.90;999.90;;;;;;;;;;5027551;28;20499;-80
2024/04/06 04:24:46;;;;;;;1999.90;999.90;;;;;;;;;;5023250;28;20068;-79
2024/04/06 04:27:12;;;;;;;1999.90;999.90;;;;;;;;;;5023003;28;20052;-80
2024/04/06 04:29:39;;;;;;;1999.90;999.90;;;;;;;;;;5026612;28;20046;-80
2024/04/06 04:32:05;;;;;;;1999.90;999.90;;;;;;;;;;5032240;28;20344;-80
2024/04/06 04:34:33;;;;;;;1999.90;999.90;;;;;;;;;;5052479;28;20038;-80
2024/04/06 04:36:58;;;;;;;1999.90;999.90;;;;;;;;;;5054375;28;20105;-79
2024/04/06 04:39:25;;;;;;;1999.90;999.90;;;;;;;;;;5037763;28;20144;-79
2024/04/06 04:41:50;;;;;;;1999.90;999.90;;;;;;;;;;5031373;28;20060;-80
2024/04/06 04:44:17;;;;;;;1999.90;999.90;;;;;;;;;;5031211;28;20057;-80
2024/04/06 04:46:43;;;;;;;1999.90;999.90;;;;;;;;;;5024268;28;20061;-79
2024/04/06 04:49:10;;;;;;;1999.90;999.90;;;;;;;;;;5029058;28;20057;-79
2024/04/06 04:51:37;;;;;;;1999.90;999.90;;;;;;;;;;5035392;28;20580;-79
2024/04/06 04:54:06;;;;;;;1999.90;999.90;;;;;;;;;;5033263;28;20050;-79
2024/04/06 04:56:31;;;;;;;1999.90;999.90;;;;;;;;;;5028670;28;20530;-80
2024/04/06 04:58:58;;;;;;;1999.90;999.90;;;;;;;;;;5036118;28;20053;-80
2024/04/06 05:01:24;;;;;;;1999.90;999.90;;;;;;;;;;5034887;28;20146;-80
2024/04/06 05:03:50;;;;;;;1999.90;999.90;;;;;;;;;;5042112;28;20480;-80
2024/04/06 05:06:17;;;;;;;1999.90;999.90;;;;;;;;;;5041849;28;20042;-80
2024/04/06 05:08:44;;;;;;;1999.90;999.90;;;;;;;;;;5029672;28;20140;-80
2024/04/06 05:11:10;;;;;;;1999.90;999.90;;;;;;;;;;5032511;28;20073;-80
2024/04/06 05:13:36;;;;;;;1999.90;999.90;;;;;;;;;;5029823;28;20056;-80
2024/04/06 05:16:02;;;;;;;1999.90;999.90;;;;;;;;;;5038766;28;20061;-79
2024/04/06 05:18:28;;;;;;;1999.90;999.90;;;;;;;;;;5043263;28;20059;-80
2024/04/06 05:20:56;;;;;;;1999.90;999.90;;;;;;;;;;5042833;28;20044;-80
2024/04/06 05:23:22;;;;;;;1999.90;999.90;;;;;;;;;;5022796;28;20050;-80
2024/04/06 05:25:51;;;;;;;1999.90;999.90;;;;;;;;;;5038546;28;20071;-80
2024/04/06 05:28:18;;;;;;;1999.90;999.90;;;;;;;;;;5038602;28;20053;-80
2024/04/06 05:30:51;;;;;;;1999.90;999.90;;;;;;;;;;5035278;28;20072;-82
2024/04/06 05:33:18;;;;;;;1999.90;999.90;;;;;;;;;;5033714;28;20068;-82
2024/04/06 05:35:47;;;;;;;1999.90;999.90;;;;;;;;;;5029295;28;20419;-82
2024/04/06 05:38:12;;;;;;;1999.90;999.90;;;;;;;;;;5028824;28;20061;-83
2024/04/06 05:40:40;;;;;;;1999.90;999.90;;;;;;;;;;5030589;28;20045;-82
2024/04/06 05:43:07;;;;;;;1999.90;999.90;;;;;;;;;;5036232;28;20046;-84
2024/04/06 05:45:34;;;;;;;1999.90;999.90;;;;;;;;;;5032735;28;20487;-83
2024/04/06 05:48:03;;;;;;;1999.90;999.90;;;;;;;;;;5032615;28;20049;-84
2024/04/06 05:50:30;;;;;;;1999.90;999.90;;;;;;;;;;5038479;28;20127;-84
2024/04/06 05:52:55;;;;;;;1999.90;999.90;;;;;;;;;;5035573;28;20045;-82
2024/04/06 05:55:22;;;;;;;1999.90;999.90;;;;;;;;;;5025217;28;20059;-83
2024/04/06 05:57:47;;;;;;;1999.90;999.90;;;;;;;;;;5036605;28;20049;-83
2024/04/06 06:00:17;;;;;;;1999.90;999.90;;;;;;;;;;5033748;28;20052;-84
2024/04/06 06:02:43;;;;;;;1999.90;999.90;;;;;;;;;;5033951;28;20061;-84
2024/04/06 06:05:10;;;;;;;1999.90;999.90;;;;;;;;;;5037471;28;20107;-83
2024/04/06 06:07:36;;;;;;;1999.90;999.90;;;;;;;;;;5033378;28;20136;-83
2024/04/06 06:10:03;;;;;;;1999.90;999.90;;;;;;;;;;5031396;28;20106;-84
2024/04/06 06:12:28;;;;;;;1999.90;999.90;;;;;;;;;;5034911;28;20132;-83
2024/04/06 06:14:55;;;;;;;1999.90;999.90;;;;;;;;;;5039672;28;20140;-83
2024/04/06 06:17:22;;;;;;;1999.90;999.90;;;;;;;;;;5032502;28;20056;-84
2024/04/06 06:19:48;;;;;;;1999.90;999.90;;;;;;;;;;5034422;28;20467;-83
2024/04/06 06:22:14;;;;;;;1999.90;999.90;;;;;;;;;;5030652;28;20041;-83
2024/04/06 06:24:42;;;;;;;1999.90;999.90;;;;;;;;;;5034425;28;20144;-84
2024/04/06 06:27:07;;;;;;;1999.90;999.90;;;;;;;;;;5032196;28;20603;-83
2024/04/06 06:29:34;;;;;;;1999.90;999.90;;;;;;;;;;5040372;28;20144;-83
2024/04/06 06:32:00;;;;;;;1999.90;999.90;;;;;;;;;;5033937;28;20170;-83
2024/04/06 06:34:29;;;;;;;1999.90;999.90;;;;;;;;;;5030923;28;20136;-83
2024/04/06 06:36:55;;;;;;;1999.90;999.90;;;;;;;;;;5036834;28;20049;-84
2024/04/06 06:39:22;;;;;;;1999.90;999.90;;;;;;;;;;5033772;28;20111;-84
2024/04/06 06:41:47;;;;;;;1999.90;999.90;;;;;;;;;;5030304;28;20053;-84
2024/04/06 06:44:14;;;;;;;1999.90;999.90;;;;;;;;;;5029070;28;20050;-84
2024/04/06 06:46:39;;;;;;;1999.90;999.90;;;;;;;;;;5042205;28;20059;-85
2024/04/06 06:49:06;;;;;;;1999.90;999.90;;;;;;;;;;5036604;28;20042;-84
2024/04/06 06:51:33;;;;;;;1999.90;999.90;;;;;;;;;;5031942;28;20045;-84
2024/04/06 06:53:59;;;;;;;1999.90;999.90;;;;;;;;;;5033724;28;20096;-84
2024/04/06 06:56:25;;;;;;;1999.90;999.90;;;;;;;;;;5037817;28;20053;-84
2024/04/06 06:58:52;;;;;;;1999.90;999.90;;;;;;;;;;5038888;28;20044;-84
2024/04/06 07:01:17;;;;;;;1999.90;999.90;;;;;;;;;;5040067;28;20049;-84
2024/04/06 07:03:44;;;;;;;1999.90;999.90;;;;;;;;;;5035405;28;20053;-84
2024/04/06 07:06:12;;;;;;;1999.90;999.90;;;;;;;;;;5033010;28;20049;-84
2024/04/06 07:08:40;;;;;;;1999.90;999.90;;;;;;;;;;5030938;28;20056;-84
2024/04/06 07:11:06;;;;;;;1999.90;999.90;;;;;;;;;;5027052;28;20041;-83
2024/04/06 07:13:33;;;;;;;1999.90;999.90;;;;;;;;;;5031118;28;20060;-85
2024/04/06 07:16:04;;;;;;;1999.90;999.90;;;;;;;;;;5035649;28;20076;-84
2024/04/06 07:18:30;;;;;;;1999.90;999.90;;;;;;;;;;5034389;28;20045;-84
2024/04/06 07:20:56;;;;;;;1999.90;999.90;;;;;;;;;;5040536;28;20132;-86
2024/04/06 07:23:22;;;;;;;1999.90;999.90;;;;;;;;;;5037141;28;20080;-85
2024/04/06 07:25:49;;;;;;;1999.90;999.90;;;;;;;;;;5036129;28;20057;-84
2024/04/06 07:28:17;;;;;;;1999.90;999.90;;;;;;;;;;5035101;28;20446;-85
2024/04/06 07:30:43;;;;;;;1999.90;999.90;;;;;;;;;;5034016;28;20045;-84
2024/04/06 07:33:10;;;;;;;1999.90;999.90;;;;;;;;;;5029202;28;20089;-84
2024/04/06 07:35:35;;;;;;;1999.90;999.90;;;;;;;;;;5032347;28;20045;-84
2024/04/06 07:38:02;;;;;;;1999.90;999.90;;;;;;;;;;5030141;28;20598;-84
2024/04/06 07:40:28;;;;;;;1999.90;999.90;;;;;;;;;;5030827;28;20045;-82
2024/04/06 07:42:55;;;;;;;1999.90;999.90;;;;;;;;;;5032309;28;20060;-82
2024/04/06 07:45:21;;;;;;;1999.90;999.90;;;;;;;;;;5030731;28;20052;-82
2024/04/06 07:47:48;;;;;;;1999.90;999.90;;;;;;;;;;5033966;28;20049;-83
2024/04/06 07:50:14;;;;;;;1999.90;999.90;;;;;;;;;;5033715;28;20174;-83
2024/04/06 07:52:40;;;;;;;1999.90;999.90;;;;;;;;;;5034851;28;20124;-83
2024/04/06 07:55:06;;;;;;;1999.90;999.90;;;;;;;;;;5030628;28;20045;-84
2024/04/06 07:57:33;;;;;;;1999.90;999.90;;;;;;;;;;5033574;28;20777;-84
2024/04/06 08:00:01;;;;;;;1999.90;999.90;;;;;;;;;;5030839;28;20554;-84
2024/04/06 08:02:28;;;;;;;1999.90;999.90;;;;;;;;;;5026325;28;20050;-84
2024/04/06 08:04:56;;;;;;;1999.90;999.90;;;;;;;;;;5030272;28;20718;-84
2024/04/06 08:07:22;;;;;;;1999.90;999.90;;;;;;;;;;5030270;28;20073;-83
2024/04/06 08:09:48;;;;;;;1999.90;999.90;;;;;;;;;;5032701;28;20053;-84
2024/04/06 08:12:14;;;;;;;1999.90;999.90;;;;;;;;;;5030849;28;20052;-84
2024/04/06 08:14:40;;;;;;;1999.90;999.90;;;;;;;;;;5029749;28;20076;-81
2024/04/06 08:17:08;;;;;;;1999.90;999.90;;;;;;;;;;5029516;28;20790;-82
2024/04/06 08:19:33;;;;;;;1999.90;999.90;;;;;;;;;;5030456;28;20060;-83
2024/04/06 08:22:01;;;;;;;1999.90;999.90;;;;;;;;;;5033160;28;20410;-84
2024/04/06 08:24:28;;;;;;;1999.90;999.90;;;;;;;;;;5025788;28;20108;-82
2024/04/06 08:26:55;;;;;;;1999.90;999.90;;;;;;;;;;5031408;28;20045;-83
2024/04/06 08:29:21;;;;;;;1999.90;999.90;;;;;;;;;;5036646;28;20060;-84
2024/04/06 08:31:47;;;;;;;1999.90;999.90;;;;;;;;;;5035654;28;20060;-85
2024/04/06 08:34:14;;;;;;;1999.90;999.90;;;;;;;;;;5043995;28;20044;-85
2024/04/06 08:36:41;;;;;;;1999.90;999.90;;;;;;;;;;5028027;28;20052;-85
2024/04/06 08:39:08;;;;;;;1999.90;999.90;;;;;;;;;;5033589;28;20136;-85
2024/04/06 08:41:36;;;;;;;1999.90;999.90;;;;;;;;;;5031350;28;20049;-85
2024/04/06 08:44:03;;;;;;;1999.90;999.90;;;;;;;;;;5037887;28;20052;-86
2024/04/06 08:46:30;;;;;;;1999.90;999.90;;;;;;;;;;5024223;28;20502;-83
2024/04/06 08:48:56;;;;;;;1999.90;999.90;;;;;;;;;;5028223;28;20063;-84
2024/04/06 08:51:27;;;;;;;1999.90;999.90;;;;;;;;;;5031626;28;20496;-82
2024/04/06 08:53:52;;;;;;;1999.90;999.90;;;;;;;;;;5033182;28;20044;-82
2024/04/06 08:56:19;;;;;;;1999.90;999.90;;;;;;;;;;5027911;28;20054;-82
2024/04/06 08:58:48;;;;;;;1999.90;999.90;;;;;;;;;;5026284;28;20427;-81
2024/04/06 09:01:14;;;;;;;1999.90;999.90;;;;;;;;;;5028224;28;20085;-85
2024/04/06 09:03:40;;;;;;;1999.90;999.90;;;;;;;;;;5029831;28;20789;-84
2024/04/06 09:06:16;;;;;;;1999.90;999.90;;;;;;;;;;5029898;28;20049;-84
2024/04/06 09:08:43;;;;;;;1999.90;999.90;;;;;;;;;;5031348;28;20056;-84
2024/04/06 09:11:12;;;;;;;1999.90;999.90;;;;;;;;;;5030371;28;20423;-84
2024/04/06 09:13:37;;;;;;;1999.90;999.90;;;;;;;;;;5034947;28;20337;-84
2024/04/06 09:16:07;;;;;;;1999.90;999.90;;;;;;;;;;5039124;28;20148;-85
2024/04/06 09:18:33;;;;;;;1999.90;999.90;;;;;;;;;;5045225;28;20140;-84
2024/04/06 09:20:59;;;;;;;1999.90;999.90;;;;;;;;;;5040984;28;20057;-85
2024/04/06 09:23:25;;;;;;;1999.90;999.90;;;;;;;;;;5033323;28;20050;-83
2024/04/06 09:25:59;;;;;;;1999.90;999.90;;;;;;;;;;5039378;28;20059;-85
2024/04/06 09:28:24;;;;;;;1999.90;999.90;;;;;;;;;;5038857;28;20155;-85
2024/04/06 09:30:56;;;;;;;1999.90;999.90;;;;;;;;;;5040471;28;20073;-85
2024/04/06 09:33:23;;;;;;;1999.90;999.90;;;;;;;;;;5030777;28;20095;-85
2024/04/06 09:35:50;;;;;;;1999.90;999.90;;;;;;;;;;5027212;28;20126;-84
2024/04/06 09:38:16;;;;;;;1999.90;999.90;;;;;;;;;;5028033;28;20048;-86
2024/04/06 09:40:45;;;;;;;1999.90;999.90;;;;;;;;;;5036251;28;20045;-85
2024/04/06 09:43:13;;;;;;;1999.90;999.90;;;;;;;;;;5035460;28;20460;-85
2024/04/06 09:45:39;;;;;;;1999.90;999.90;;;;;;;;;;5035283;28;20049;-85
2024/04/06 09:48:07;;;;;;;1999.90;999.90;;;;;;;;;;5031345;28;20160;-85
2024/04/06 09:50:36;;;;;;;1999.90;999.90;;;;;;;;;;5030168;28;20048;-84
2024/04/06 09:53:03;;;;;;;1999.90;999.90;;;;;;;;;;5032027;28;20042;-84
2024/04/06 09:55:32;;;;;;;1999.90;999.90;;;;;;;;;;5038874;28;20053;-84
2024/04/06 09:57:57;;;;;;;1999.90;999.90;;;;;;;;;;5035423;28;20045;-84
2024/04/06 10:00:33;;;;;;;1999.90;999.90;;;;;;;;;;5038066;28;20056;-86
2024/04/06 10:02:59;;;;;;;1999.90;999.90;;;;;;;;;;5041113;28;20057;-86
2024/04/06 10:05:37;;;;;;;1999.90;999.90;;;;;;;;;;5028273;28;20053;-86
2024/04/06 10:08:03;;;;;;;1999.90;999.90;;;;;;;;;;5029949;28;20060;-84
2024/04/06 10:10:31;;;;;;;1999.90;999.90;;;;;;;;;;5032006;28;20100;-81
2024/04/06 10:12:57;;;;;;;1999.90;999.90;;;;;;;;;;5031721;28;20577;-81
2024/04/06 10:15:23;;;;;;;1999.90;999.90;;;;;;;;;;5032668;28;20061;-81
2024/04/06 10:17:52;;;;;;;1999.90;999.90;;;;;;;;;;5033002;28;20049;-80
2024/04/06 10:20:21;;;;;;;1999.90;999.90;;;;;;;;;;5034045;28;20144;-81
2024/04/06 10:22:51;;;;;;;1999.90;999.90;;;;;;;;;;5031449;28;20052;-81
2024/04/06 10:25:18;;;;;;;1999.90;999.90;;;;;;;;;;5037429;28;20515;-81
2024/04/06 10:27:44;;;;;;;1999.90;999.90;;;;;;;;;;5032895;28;20054;-81
2024/04/06 10:30:11;;;;;;;1999.90;999.90;;;;;;;;;;5034558;28;20045;-80
2024/04/06 10:32:37;;;;;;;1999.90;999.90;;;;;;;;;;5036468;28;20108;-80
2024/04/06 10:35:06;;;;;;;1999.90;999.90;;;;;;;;;;5039694;28;20052;-80
2024/04/06 10:37:35;;;;;;;1999.90;999.90;;;;;;;;;;5048486;28;20049;-81
2024/04/06 10:40:02;;;;;;;1999.90;999.90;;;;;;;;;;5036731;28;20081;-80
2024/04/06 10:42:28;;;;;;;1999.90;999.90;;;;;;;;;;5032967;28;20050;-80
2024/04/06 10:44:55;;;;;;;1999.90;999.90;;;;;;;;;;5036061;28;20048;-80
2024/04/06 10:47:20;;;;;;;1999.90;999.90;;;;;;;;;;5030207;28;20069;-81
2024/04/06 10:49:47;;;;;;;1999.90;999.90;;;;;;;;;;5039378;28;20056;-81
2024/04/06 10:52:15;;;;;;;1999.90;999.90;;;;;;;;;;5027096;28;20049;-80
2024/04/06 10:54:41;;;;;;;1999.90;999.90;;;;;;;;;;5025873;28;20078;-81
2024/04/06 10:57:07;;;;;;;1999.90;999.90;;;;;;;;;;5035823;28;20132;-80
2024/04/06 10:59:34;;;;;;;1999.90;999.90;;;;;;;;;;5035439;28;20136;-80
2024/04/06 11:01:59;;;;;;;1999.90;999.90;;;;;;;;;;5034071;28;20674;-80
2024/04/06 11:04:26;;;;;;;1999.90;999.90;;;;;;;;;;5031595;28;20136;-80
2024/04/06 11:06:52;;;;;;;1999.90;999.90;;;;;;;;;;5029923;28;20049;-80
2024/04/06 11:09:20;;;;;;;1999.90;999.90;;;;;;;;;;5032320;28;20666;-81
2024/04/06 11:11:46;;;;;;;1999.90;999.90;;;;;;;;;;5026422;28;20045;-86
2024/04/06 11:14:12;;;;;;;1999.90;999.90;;;;;;;;;;5033867;28;20168;-86
2024/04/06 11:16:41;;;;;;;1999.90;999.90;;;;;;;;;;5025207;28;20073;-85
2024/04/06 11:19:08;;;;;;;1999.90;999.90;;;;;;;;;;5034136;28;20076;-84
2024/04/06 11:21:34;;;;;;;1999.90;999.90;;;;;;;;;;5037886;28;20052;-84
2024/04/06 11:24:00;;;;;;;1999.90;999.90;;;;;;;;;;5035282;28;20060;-86
2024/04/06 11:26:27;;;;;;;1999.90;999.90;;;;;;;;;;5035667;28;20049;-85
2024/04/06 11:28:54;;;;;;;1999.90;999.90;;;;;;;;;;5034869;28;20049;-85
2024/04/06 11:31:21;;;;;;;1999.90;999.90;;;;;;;;;;5031119;28;20049;-85
2024/04/06 11:33:48;;;;;;;1999.90;999.90;;;;;;;;;;5038890;28;20059;-85
2024/04/06 11:36:13;;;;;;;1999.90;999.90;;;;;;;;;;5025182;28;20082;-85
2024/04/06 11:38:40;;;;;;;1999.90;999.90;;;;;;;;;;5035474;28;20487;-84
2024/04/06 11:41:06;;;;;;;1999.90;999.90;;;;;;;;;;5025238;28;20053;-83
2024/04/06 11:43:34;;;;;;;1999.90;999.90;;;;;;;;;;5026031;28;20041;-84
2024/04/06 11:45:59;;;;;;;1999.90;999.90;;;;;;;;;;5034747;28;20053;-85
2024/04/06 11:48:26;;;;;;;1999.90;999.90;;;;;;;;;;5032527;28;20061;-86
2024/04/06 11:50:51;;;;;;;1999.90;999.90;;;;;;;;;;5031714;28;20053;-85
2024/04/06 11:53:18;;;;;;;1999.90;999.90;;;;;;;;;;5027608;28;20063;-85
2024/04/06 11:55:43;;;;;;;1999.90;999.90;;;;;;;;;;5029062;28;20050;-85
2024/04/06 11:58:10;;;;;;;1999.90;999.90;;;;;;;;;;5027795;28;20052;-85
2024/04/06 12:00:37;;;;;;;1999.90;999.90;;;;;;;;;;5036680;28;20140;-84
2024/04/06 12:03:04;;;;;;;1999.90;999.90;;;;;;;;;;5036573;28;20048;-84
2024/04/06 12:05:30;;;;;;;1999.90;999.90;;;;;;;;;;5035390;28;20057;-86
2024/04/06 12:07:57;;;;;;;1999.90;999.90;;;;;;;;;;5032923;28;20049;-83
2024/04/06 12:10:22;;;;;;;1999.90;999.90;;;;;;;;;;5034806;28;20052;-83
2024/04/06 12:12:49;;;;;;;1999.90;999.90;;;;;;;;;;5036420;28;20056;-84
2024/04/06 12:15:15;;;;;;;1999.90;999.90;;;;;;;;;;5034120;28;20545;-84
2024/04/06 12:17:43;;;;;;;1999.90;999.90;;;;;;;;;;5028720;28;20072;-83
2024/04/06 12:20:09;;;;;;;1999.90;999.90;;;;;;;;;;5028979;28;20513;-85
2024/04/06 12:22:36;;;;;;;1999.90;999.90;;;;;;;;;;5031330;28;20559;-85
2024/04/06 12:25:01;;;;;;;1999.90;999.90;;;;;;;;;;5030586;28;20856;-82
2024/04/06 12:27:28;;;;;;;1999.90;999.90;;;;;;;;;;5032183;28;20167;-83
2024/04/06 12:29:54;;;;;;;1999.90;999.90;;;;;;;;;;5028495;28;20063;-82
2024/04/06 12:32:21;;;;;;;1999.90;999.90;;;;;;;;;;5030673;28;20053;-83
2024/04/06 12:34:48;;;;;;;1999.90;999.90;;;;;;;;;;5032547;28;20530;-83
2024/04/06 12:37:14;;;;;;;1999.90;999.90;;;;;;;;;;5029507;28;20045;-83
2024/04/06 12:39:40;;;;;;;1999.90;999.90;;;;;;;;;;5029466;28;20506;-85
2024/04/06 12:42:07;;;;;;;1999.90;999.90;;;;;;;;;;5026806;28;20045;-83
2024/04/06 12:44:33;;;;;;;1999.90;999.90;;;;;;;;;;5033078;28;20049;-86
2024/04/06 12:47:02;;;;;;;1999.90;999.90;;;;;;;;;;5038636;28;20057;-85
2024/04/06 12:49:29;;;;;;;1999.90;999.90;;;;;;;;;;5036704;28;20563;-84
2024/04/06 12:51:57;;;;;;;1999.90;999.90;;;;;;;;;;5036331;28;20053;-83
2024/04/06 12:54:22;;;;;;;1999.90;999.90;;;;;;;;;;5034986;28;20060;-85
2024/04/06 12:59:34;;;;;;;1999.90;999.90;;;;;;;;;;5024825;28;20168;-82
2024/04/06 13:02:01;;;;;;;1999.90;999.90;;;;;;;;;;5031338;28;20089;-84
2024/04/06 13:04:27;;;;;;;1999.90;999.90;;;;;;;;;;5032852;28;20561;-83
2024/04/06 13:06:54;;;;;;;1999.90;999.90;;;;;;;;;;5030087;28;20132;-84
2024/04/06 13:09:21;;;;;;;1999.90;999.90;;;;;;;;;;5030600;28;20049;-84
2024/04/06 13:11:48;;;;;;;1999.90;999.90;;;;;;;;;;5034749;28;20407;-82
2024/04/06 13:14:14;;;;;;;1999.90;999.90;;;;;;;;;;5033785;28;20056;-84
2024/04/06 13:16:45;;;;;;;1999.90;999.90;;;;;;;;;;5033742;28;20054;-84
2024/04/06 13:19:16;;;;;;;1999.90;999.90;;;;;;;;;;5033919;28;20124;-83
2024/04/06 13:21:42;;;;;;;1999.90;999.90;;;;;;;;;;5037369;28;20054;-84
2024/04/06 13:24:09;;;;;;;1999.90;999.90;;;;;;;;;;5030921;28;20049;-83
2024/04/06 13:26:37;;;;;;;1999.90;999.90;;;;;;;;;;5032047;28;20053;-84
2024/04/06 13:29:04;;;;;;;1999.90;999.90;;;;;;;;;;5035300;28;20058;-83
2024/04/06 13:31:31;;;;;;;1999.90;999.90;;;;;;;;;;5039000;28;20068;-82
2024/04/06 13:33:56;;;;;;;1999.90;999.90;;;;;;;;;;5042220;28;20059;-83
2024/04/06 13:36:23;;;;;;;1999.90;999.90;;;;;;;;;;5031427;28;20045;-84
2024/04/06 13:38:48;;;;;;;1999.90;999.90;;;;;;;;;;5037049;28;20491;-84
2024/04/06 13:41:15;;;;;;;1999.90;999.90;;;;;;;;;;5038851;28;20053;-83